sensor_id;sensor_type;location;lat;lon;timestamp;P1;durP1;ratioP1;P2;durP2;ratioP2
19651;SDS011;9974;52.146;14.668;2023-04-06T00:01:36;17.33;;;10.50;;
19651;SDS011;9974;52.146;14.668;2023-04-06T00:04:03;24.83;;;12.63;;
19651;SDS011;9974;52.146;14.668;2023-04-06T00:06:29;17.57;;;11.17;;
19651;SDS011;9974;52.146;14.668;2023-04-06T00:08:56;20.20;;;12.93;;
19651;SDS011;9974;52.146;14.668;2023-04-06T00:11:23;25.27;;;13.00;;
19651;SDS011;9974;52.146;14.668;2023-04-06T00:13:49;19.83;;;11.93;;
19651;SDS011;9974;52.146;14.668;2023-04-06T00:16:15;21.67;;;12.40;;
19651;SDS011;9974;52.146;14.668;2023-04-06T00:18:42;21.47;;;13.03;;
19651;SDS011;9974;52.146;14.668;2023-04-06T00:21:08;17.23;;;11.57;;
19651;SDS011;9974;52.146;14.668;2023-04-06T00:23:36;21.37;;;12.67;;
19651;SDS011;9974;52.146;14.668;2023-04-06T00:26:02;21.47;;;12.27;;
19651;SDS011;9974;52.146;14.668;2023-04-06T00:28:28;20.17;;;11.33;;
19651;SDS011;9974;52.146;14.668;2023-04-06T00:30:55;21.23;;;12.23;;
19651;SDS011;9974;52.146;14.668;2023-04-06T00:33:21;19.67;;;11.70;;
19651;SDS011;9974;52.146;14.668;2023-04-06T00:35:48;19.90;;;11.90;;
19651;SDS011;9974;52.146;14.668;2023-04-06T00:38:14;19.60;;;13.03;;
19651;SDS011;9974;52.146;14.668;2023-04-06T00:40:41;23.50;;;12.70;;
19651;SDS011;9974;52.146;14.668;2023-04-06T00:43:13;24.17;;;13.13;;
19651;SDS011;9974;52.146;14.668;2023-04-06T00:45:39;23.80;;;12.47;;
19651;SDS011;9974;52.146;14.668;2023-04-06T00:48:06;24.07;;;12.33;;
19651;SDS011;9974;52.146;14.668;2023-04-06T00:50:33;18.80;;;12.33;;
19651;SDS011;9974;52.146;14.668;2023-04-06T00:52:59;17.70;;;11.50;;
19651;SDS011;9974;52.146;14.668;2023-04-06T00:55:26;19.23;;;11.77;;
19651;SDS011;9974;52.146;14.668;2023-04-06T00:57:58;17.67;;;11.37;;
19651;SDS011;9974;52.146;14.668;2023-04-06T01:00:28;17.33;;;11.23;;
19651;SDS011;9974;52.146;14.668;2023-04-06T01:02:55;19.20;;;11.23;;
19651;SDS011;9974;52.146;14.668;2023-04-06T01:05:21;17.60;;;10.73;;
19651;SDS011;9974;52.146;14.668;2023-04-06T01:07:47;18.60;;;11.00;;
19651;SDS011;9974;52.146;14.668;2023-04-06T01:10:26;18.60;;;11.17;;
19651;SDS011;9974;52.146;14.668;2023-04-06T01:12:52;24.53;;;11.23;;
19651;SDS011;9974;52.146;14.668;2023-04-06T01:15:19;21.27;;;12.37;;
19651;SDS011;9974;52.146;14.668;2023-04-06T01:17:46;18.23;;;12.23;;
19651;SDS011;9974;52.146;14.668;2023-04-06T01:20:12;19.77;;;11.63;;
19651;SDS011;9974;52.146;14.668;2023-04-06T01:22:38;22.20;;;13.17;;
19651;SDS011;9974;52.146;14.668;2023-04-06T01:25:04;26.13;;;14.07;;
19651;SDS011;9974;52.146;14.668;2023-04-06T01:27:31;25.80;;;13.83;;
19651;SDS011;9974;52.146;14.668;2023-04-06T01:29:57;20.97;;;12.67;;
19651;SDS011;9974;52.146;14.668;2023-04-06T01:32:23;22.77;;;12.77;;
19651;SDS011;9974;52.146;14.668;2023-04-06T01:34:49;17.93;;;12.27;;
19651;SDS011;9974;52.146;14.668;2023-04-06T01:37:15;23.20;;;13.80;;
19651;SDS011;9974;52.146;14.668;2023-04-06T01:39:42;23.30;;;13.77;;
19651;SDS011;9974;52.146;14.668;2023-04-06T01:42:09;23.77;;;13.93;;
19651;SDS011;9974;52.146;14.668;2023-04-06T01:44:35;23.67;;;14.27;;
19651;SDS011;9974;52.146;14.668;2023-04-06T01:47:02;24.57;;;14.43;;
19651;SDS011;9974;52.146;14.668;2023-04-06T01:49:28;26.70;;;15.13;;
19651;SDS011;9974;52.146;14.668;2023-04-06T01:51:54;25.53;;;15.03;;
19651;SDS011;9974;52.146;14.668;2023-04-06T01:54:20;24.70;;;15.37;;
19651;SDS011;9974;52.146;14.668;2023-04-06T01:56:46;25.30;;;14.33;;
19651;SDS011;9974;52.146;14.668;2023-04-06T01:59:15;22.23;;;14.13;;
19651;SDS011;9974;52.146;14.668;2023-04-06T02:01:41;24.83;;;15.57;;
19651;SDS011;9974;52.146;14.668;2023-04-06T02:04:07;22.63;;;13.50;;
19651;SDS011;9974;52.146;14.668;2023-04-06T02:06:33;22.97;;;14.17;;
19651;SDS011;9974;52.146;14.668;2023-04-06T02:08:59;23.27;;;13.13;;
19651;SDS011;9974;52.146;14.668;2023-04-06T02:11:25;23.13;;;13.63;;
19651;SDS011;9974;52.146;14.668;2023-04-06T02:13:51;24.63;;;13.43;;
19651;SDS011;9974;52.146;14.668;2023-04-06T02:16:17;20.30;;;13.30;;
19651;SDS011;9974;52.146;14.668;2023-04-06T02:18:43;28.37;;;14.47;;
19651;SDS011;9974;52.146;14.668;2023-04-06T02:21:10;23.03;;;14.73;;
19651;SDS011;9974;52.146;14.668;2023-04-06T02:23:36;25.33;;;14.17;;
19651;SDS011;9974;52.146;14.668;2023-04-06T02:26:02;24.23;;;13.60;;
19651;SDS011;9974;52.146;14.668;2023-04-06T02:28:28;24.80;;;14.70;;
19651;SDS011;9974;52.146;14.668;2023-04-06T02:30:54;23.63;;;13.97;;
19651;SDS011;9974;52.146;14.668;2023-04-06T02:33:20;24.13;;;14.13;;
19651;SDS011;9974;52.146;14.668;2023-04-06T02:35:46;20.63;;;13.50;;
19651;SDS011;9974;52.146;14.668;2023-04-06T02:38:13;21.40;;;13.43;;
19651;SDS011;9974;52.146;14.668;2023-04-06T02:40:39;24.73;;;13.23;;
19651;SDS011;9974;52.146;14.668;2023-04-06T02:43:05;26.00;;;15.63;;
19651;SDS011;9974;52.146;14.668;2023-04-06T02:45:31;26.40;;;15.40;;
19651;SDS011;9974;52.146;14.668;2023-04-06T02:47:57;22.20;;;15.27;;
19651;SDS011;9974;52.146;14.668;2023-04-06T02:50:23;28.00;;;14.97;;
19651;SDS011;9974;52.146;14.668;2023-04-06T02:52:49;26.33;;;14.37;;
19651;SDS011;9974;52.146;14.668;2023-04-06T02:55:17;25.43;;;15.23;;
19651;SDS011;9974;52.146;14.668;2023-04-06T02:57:44;28.63;;;15.37;;
19651;SDS011;9974;52.146;14.668;2023-04-06T03:00:11;28.57;;;16.87;;
19651;SDS011;9974;52.146;14.668;2023-04-06T03:02:37;27.33;;;16.57;;
19651;SDS011;9974;52.146;14.668;2023-04-06T03:05:03;29.73;;;17.70;;
19651;SDS011;9974;52.146;14.668;2023-04-06T03:07:30;31.40;;;18.90;;
19651;SDS011;9974;52.146;14.668;2023-04-06T03:09:56;30.40;;;17.37;;
19651;SDS011;9974;52.146;14.668;2023-04-06T03:12:22;35.93;;;19.73;;
19651;SDS011;9974;52.146;14.668;2023-04-06T03:14:48;33.37;;;17.77;;
19651;SDS011;9974;52.146;14.668;2023-04-06T03:17:14;29.73;;;17.47;;
19651;SDS011;9974;52.146;14.668;2023-04-06T03:19:40;34.43;;;17.47;;
19651;SDS011;9974;52.146;14.668;2023-04-06T03:22:07;37.60;;;18.13;;
19651;SDS011;9974;52.146;14.668;2023-04-06T03:24:33;27.13;;;16.43;;
19651;SDS011;9974;52.146;14.668;2023-04-06T03:26:59;30.70;;;17.63;;
19651;SDS011;9974;52.146;14.668;2023-04-06T03:29:25;30.77;;;17.53;;
19651;SDS011;9974;52.146;14.668;2023-04-06T03:31:52;31.20;;;17.73;;
19651;SDS011;9974;52.146;14.668;2023-04-06T03:34:18;29.30;;;18.07;;
19651;SDS011;9974;52.146;14.668;2023-04-06T03:36:44;31.30;;;18.33;;
19651;SDS011;9974;52.146;14.668;2023-04-06T03:39:10;37.37;;;18.27;;
19651;SDS011;9974;52.146;14.668;2023-04-06T03:41:37;36.13;;;18.43;;
19651;SDS011;9974;52.146;14.668;2023-04-06T03:44:03;36.07;;;20.30;;
19651;SDS011;9974;52.146;14.668;2023-04-06T03:46:30;35.63;;;21.13;;
19651;SDS011;9974;52.146;14.668;2023-04-06T03:48:56;38.20;;;22.50;;
19651;SDS011;9974;52.146;14.668;2023-04-06T03:51:22;38.30;;;21.80;;
19651;SDS011;9974;52.146;14.668;2023-04-06T03:53:48;33.10;;;19.93;;
19651;SDS011;9974;52.146;14.668;2023-04-06T03:56:14;33.93;;;19.90;;
19651;SDS011;9974;52.146;14.668;2023-04-06T03:58:40;36.07;;;20.00;;
19651;SDS011;9974;52.146;14.668;2023-04-06T04:01:07;36.63;;;20.70;;
19651;SDS011;9974;52.146;14.668;2023-04-06T04:03:33;33.90;;;20.50;;
19651;SDS011;9974;52.146;14.668;2023-04-06T04:05:59;38.07;;;21.63;;
19651;SDS011;9974;52.146;14.668;2023-04-06T04:08:25;37.10;;;20.40;;
19651;SDS011;9974;52.146;14.668;2023-04-06T04:10:51;38.90;;;21.63;;
19651;SDS011;9974;52.146;14.668;2023-04-06T04:13:17;36.73;;;21.57;;
19651;SDS011;9974;52.146;14.668;2023-04-06T04:15:43;29.40;;;19.90;;
19651;SDS011;9974;52.146;14.668;2023-04-06T04:18:09;32.87;;;20.67;;
19651;SDS011;9974;52.146;14.668;2023-04-06T04:20:36;35.70;;;21.67;;
19651;SDS011;9974;52.146;14.668;2023-04-06T04:23:02;35.57;;;20.90;;
19651;SDS011;9974;52.146;14.668;2023-04-06T04:25:28;33.53;;;20.43;;
19651;SDS011;9974;52.146;14.668;2023-04-06T04:27:54;34.60;;;21.67;;
19651;SDS011;9974;52.146;14.668;2023-04-06T04:30:20;41.73;;;22.07;;
19651;SDS011;9974;52.146;14.668;2023-04-06T04:32:46;38.53;;;20.77;;
19651;SDS011;9974;52.146;14.668;2023-04-06T04:35:12;36.90;;;21.57;;
19651;SDS011;9974;52.146;14.668;2023-04-06T04:37:38;35.97;;;20.03;;
19651;SDS011;9974;52.146;14.668;2023-04-06T04:40:05;40.80;;;22.07;;
19651;SDS011;9974;52.146;14.668;2023-04-06T04:42:32;39.77;;;20.97;;
19651;SDS011;9974;52.146;14.668;2023-04-06T04:44:58;37.13;;;21.67;;
19651;SDS011;9974;52.146;14.668;2023-04-06T04:47:24;30.83;;;21.03;;
19651;SDS011;9974;52.146;14.668;2023-04-06T04:49:50;31.77;;;20.57;;
19651;SDS011;9974;52.146;14.668;2023-04-06T04:52:16;41.93;;;21.93;;
19651;SDS011;9974;52.146;14.668;2023-04-06T04:54:42;39.10;;;21.37;;
19651;SDS011;9974;52.146;14.668;2023-04-06T04:57:08;37.40;;;21.17;;
19651;SDS011;9974;52.146;14.668;2023-04-06T04:59:35;33.33;;;20.90;;
19651;SDS011;9974;52.146;14.668;2023-04-06T05:02:01;35.70;;;20.83;;
19651;SDS011;9974;52.146;14.668;2023-04-06T05:04:27;36.77;;;19.97;;
19651;SDS011;9974;52.146;14.668;2023-04-06T05:07:03;34.83;;;19.30;;
19651;SDS011;9974;52.146;14.668;2023-04-06T05:09:33;29.43;;;18.57;;
19651;SDS011;9974;52.146;14.668;2023-04-06T05:11:59;33.67;;;20.93;;
19651;SDS011;9974;52.146;14.668;2023-04-06T05:14:26;31.37;;;19.53;;
19651;SDS011;9974;52.146;14.668;2023-04-06T05:16:52;26.97;;;17.63;;
19651;SDS011;9974;52.146;14.668;2023-04-06T05:19:18;29.30;;;17.33;;
19651;SDS011;9974;52.146;14.668;2023-04-06T05:21:45;30.00;;;17.07;;
19651;SDS011;9974;52.146;14.668;2023-04-06T05:24:11;29.67;;;17.47;;
19651;SDS011;9974;52.146;14.668;2023-04-06T05:26:37;34.80;;;16.87;;
19651;SDS011;9974;52.146;14.668;2023-04-06T05:29:03;33.23;;;18.13;;
19651;SDS011;9974;52.146;14.668;2023-04-06T05:31:30;31.93;;;17.80;;
19651;SDS011;9974;52.146;14.668;2023-04-06T05:33:57;29.37;;;16.20;;
19651;SDS011;9974;52.146;14.668;2023-04-06T05:36:24;23.73;;;15.67;;
19651;SDS011;9974;52.146;14.668;2023-04-06T05:38:51;31.60;;;16.20;;
19651;SDS011;9974;52.146;14.668;2023-04-06T05:41:17;31.80;;;16.00;;
19651;SDS011;9974;52.146;14.668;2023-04-06T05:43:43;25.43;;;15.30;;
19651;SDS011;9974;52.146;14.668;2023-04-06T05:46:10;29.40;;;16.37;;
19651;SDS011;9974;52.146;14.668;2023-04-06T05:48:36;28.43;;;15.83;;
19651;SDS011;9974;52.146;14.668;2023-04-06T05:51:02;27.50;;;14.60;;
19651;SDS011;9974;52.146;14.668;2023-04-06T05:53:31;23.40;;;15.30;;
19651;SDS011;9974;52.146;14.668;2023-04-06T05:56:00;25.17;;;13.57;;
19651;SDS011;9974;52.146;14.668;2023-04-06T05:58:26;27.53;;;15.80;;
19651;SDS011;9974;52.146;14.668;2023-04-06T06:00:59;25.67;;;15.47;;
19651;SDS011;9974;52.146;14.668;2023-04-06T06:03:25;27.37;;;15.30;;
19651;SDS011;9974;52.146;14.668;2023-04-06T06:05:51;29.10;;;15.23;;
19651;SDS011;9974;52.146;14.668;2023-04-06T06:08:18;27.67;;;14.67;;
19651;SDS011;9974;52.146;14.668;2023-04-06T06:10:44;26.60;;;14.50;;
19651;SDS011;9974;52.146;14.668;2023-04-06T06:13:10;23.90;;;14.70;;
19651;SDS011;9974;52.146;14.668;2023-04-06T06:15:36;22.50;;;14.17;;
19651;SDS011;9974;52.146;14.668;2023-04-06T06:18:02;21.93;;;13.50;;
19651;SDS011;9974;52.146;14.668;2023-04-06T06:20:28;21.93;;;13.43;;
19651;SDS011;9974;52.146;14.668;2023-04-06T06:22:54;19.57;;;12.47;;
19651;SDS011;9974;52.146;14.668;2023-04-06T06:25:20;28.23;;;13.33;;
19651;SDS011;9974;52.146;14.668;2023-04-06T06:27:47;26.27;;;13.23;;
19651;SDS011;9974;52.146;14.668;2023-04-06T06:30:13;23.27;;;13.17;;
19651;SDS011;9974;52.146;14.668;2023-04-06T06:32:39;22.00;;;12.70;;
19651;SDS011;9974;52.146;14.668;2023-04-06T06:35:05;25.00;;;13.20;;
19651;SDS011;9974;52.146;14.668;2023-04-06T06:37:32;19.93;;;11.40;;
19651;SDS011;9974;52.146;14.668;2023-04-06T06:39:58;20.13;;;10.80;;
19651;SDS011;9974;52.146;14.668;2023-04-06T06:42:24;21.20;;;12.73;;
19651;SDS011;9974;52.146;14.668;2023-04-06T06:44:51;22.60;;;11.50;;
19651;SDS011;9974;52.146;14.668;2023-04-06T06:47:17;26.03;;;12.00;;
19651;SDS011;9974;52.146;14.668;2023-04-06T06:49:43;21.17;;;11.63;;
19651;SDS011;9974;52.146;14.668;2023-04-06T06:52:09;18.33;;;10.57;;
19651;SDS011;9974;52.146;14.668;2023-04-06T06:54:35;18.43;;;11.87;;
19651;SDS011;9974;52.146;14.668;2023-04-06T06:57:01;21.20;;;12.10;;
19651;SDS011;9974;52.146;14.668;2023-04-06T06:59:27;23.08;;;11.13;;
19651;SDS011;9974;52.146;14.668;2023-04-06T07:01:53;18.37;;;10.77;;
19651;SDS011;9974;52.146;14.668;2023-04-06T07:04:19;22.73;;;11.93;;
19651;SDS011;9974;52.146;14.668;2023-04-06T07:06:45;20.33;;;11.07;;
19651;SDS011;9974;52.146;14.668;2023-04-06T07:09:11;17.53;;;11.20;;
19651;SDS011;9974;52.146;14.668;2023-04-06T07:11:37;15.97;;;10.70;;
19651;SDS011;9974;52.146;14.668;2023-04-06T07:14:03;23.20;;;11.47;;
19651;SDS011;9974;52.146;14.668;2023-04-06T07:16:29;21.03;;;12.10;;
19651;SDS011;9974;52.146;14.668;2023-04-06T07:18:55;19.88;;;12.50;;
19651;SDS011;9974;52.146;14.668;2023-04-06T07:21:21;20.92;;;12.80;;
19651;SDS011;9974;52.146;14.668;2023-04-06T07:23:48;20.80;;;13.38;;
19651;SDS011;9974;52.146;14.668;2023-04-06T07:26:15;22.42;;;13.45;;
19651;SDS011;9974;52.146;14.668;2023-04-06T07:28:41;25.08;;;13.27;;
19651;SDS011;9974;52.146;14.668;2023-04-06T07:31:07;46.85;;;13.23;;
19651;SDS011;9974;52.146;14.668;2023-04-06T07:33:33;33.53;;;11.70;;
19651;SDS011;9974;52.146;14.668;2023-04-06T07:36:00;18.73;;;11.23;;
19651;SDS011;9974;52.146;14.668;2023-04-06T07:38:26;17.07;;;9.67;;
19651;SDS011;9974;52.146;14.668;2023-04-06T07:40:52;18.25;;;9.48;;
19651;SDS011;9974;52.146;14.668;2023-04-06T07:43:18;14.05;;;8.73;;
19651;SDS011;9974;52.146;14.668;2023-04-06T07:45:44;14.80;;;8.98;;
19651;SDS011;9974;52.146;14.668;2023-04-06T07:48:10;15.57;;;8.50;;
19651;SDS011;9974;52.146;14.668;2023-04-06T07:50:36;15.02;;;8.68;;
19651;SDS011;9974;52.146;14.668;2023-04-06T07:53:02;15.35;;;8.35;;
19651;SDS011;9974;52.146;14.668;2023-04-06T07:55:30;18.92;;;10.25;;
19651;SDS011;9974;52.146;14.668;2023-04-06T07:57:56;16.08;;;7.93;;
19651;SDS011;9974;52.146;14.668;2023-04-06T08:00:22;12.10;;;7.63;;
19651;SDS011;9974;52.146;14.668;2023-04-06T08:02:48;10.80;;;7.07;;
19651;SDS011;9974;52.146;14.668;2023-04-06T08:05:14;13.18;;;6.93;;
19651;SDS011;9974;52.146;14.668;2023-04-06T08:07:40;13.15;;;5.88;;
19651;SDS011;9974;52.146;14.668;2023-04-06T08:10:07;13.85;;;6.57;;
19651;SDS011;9974;52.146;14.668;2023-04-06T08:12:34;14.25;;;7.90;;
19651;SDS011;9974;52.146;14.668;2023-04-06T08:15:00;14.43;;;6.63;;
19651;SDS011;9974;52.146;14.668;2023-04-06T08:17:27;15.90;;;6.28;;
19651;SDS011;9974;52.146;14.668;2023-04-06T08:19:55;13.65;;;8.60;;
19651;SDS011;9974;52.146;14.668;2023-04-06T08:22:21;20.95;;;8.68;;
19651;SDS011;9974;52.146;14.668;2023-04-06T08:24:47;11.23;;;6.38;;
19651;SDS011;9974;52.146;14.668;2023-04-06T08:27:13;13.52;;;6.65;;
19651;SDS011;9974;52.146;14.668;2023-04-06T08:29:39;9.75;;;6.75;;
19651;SDS011;9974;52.146;14.668;2023-04-06T08:32:06;11.00;;;6.28;;
19651;SDS011;9974;52.146;14.668;2023-04-06T08:34:32;14.43;;;5.80;;
19651;SDS011;9974;52.146;14.668;2023-04-06T08:36:59;11.85;;;6.25;;
19651;SDS011;9974;52.146;14.668;2023-04-06T08:39:25;15.00;;;8.23;;
19651;SDS011;9974;52.146;14.668;2023-04-06T08:41:52;18.27;;;7.93;;
19651;SDS011;9974;52.146;14.668;2023-04-06T08:44:22;10.48;;;6.85;;
19651;SDS011;9974;52.146;14.668;2023-04-06T08:46:48;15.90;;;7.25;;
19651;SDS011;9974;52.146;14.668;2023-04-06T08:49:15;12.10;;;7.00;;
19651;SDS011;9974;52.146;14.668;2023-04-06T08:51:42;13.20;;;9.25;;
19651;SDS011;9974;52.146;14.668;2023-04-06T08:54:08;13.68;;;8.60;;
19651;SDS011;9974;52.146;14.668;2023-04-06T08:56:36;14.23;;;8.30;;
19651;SDS011;9974;52.146;14.668;2023-04-06T08:59:03;14.98;;;7.68;;
19651;SDS011;9974;52.146;14.668;2023-04-06T09:01:31;11.38;;;6.78;;
19651;SDS011;9974;52.146;14.668;2023-04-06T09:04:06;12.00;;;5.88;;
19651;SDS011;9974;52.146;14.668;2023-04-06T09:06:35;10.90;;;6.88;;
19651;SDS011;9974;52.146;14.668;2023-04-06T09:09:02;12.52;;;6.30;;
19651;SDS011;9974;52.146;14.668;2023-04-06T09:11:28;10.48;;;6.53;;
19651;SDS011;9974;52.146;14.668;2023-04-06T09:14:06;12.95;;;7.00;;
19651;SDS011;9974;52.146;14.668;2023-04-06T09:16:38;10.55;;;6.32;;
19651;SDS011;9974;52.146;14.668;2023-04-06T09:19:05;18.00;;;6.32;;
19651;SDS011;9974;52.146;14.668;2023-04-06T09:21:32;11.40;;;6.30;;
19651;SDS011;9974;52.146;14.668;2023-04-06T09:23:59;9.45;;;4.97;;
19651;SDS011;9974;52.146;14.668;2023-04-06T09:26:25;14.93;;;6.15;;
19651;SDS011;9974;52.146;14.668;2023-04-06T09:31:22;9.73;;;5.05;;
19651;SDS011;9974;52.146;14.668;2023-04-06T09:33:57;10.68;;;5.30;;
19651;SDS011;9974;52.146;14.668;2023-04-06T09:36:30;10.68;;;5.50;;
19651;SDS011;9974;52.146;14.668;2023-04-06T09:39:02;8.32;;;5.25;;
19651;SDS011;9974;52.146;14.668;2023-04-06T09:41:32;10.75;;;5.10;;
19651;SDS011;9974;52.146;14.668;2023-04-06T09:44:09;10.77;;;5.10;;
19651;SDS011;9974;52.146;14.668;2023-04-06T09:46:37;10.70;;;5.40;;
19651;SDS011;9974;52.146;14.668;2023-04-06T09:49:04;9.43;;;4.88;;
19651;SDS011;9974;52.146;14.668;2023-04-06T09:51:32;10.73;;;5.53;;
19651;SDS011;9974;52.146;14.668;2023-04-06T09:54:06;8.80;;;5.13;;
19651;SDS011;9974;52.146;14.668;2023-04-06T09:56:45;8.23;;;4.60;;
19651;SDS011;9974;52.146;14.668;2023-04-06T09:59:13;9.38;;;5.03;;
19651;SDS011;9974;52.146;14.668;2023-04-06T10:01:44;9.35;;;4.75;;
19651;SDS011;9974;52.146;14.668;2023-04-06T10:04:20;8.35;;;4.15;;
19651;SDS011;9974;52.146;14.668;2023-04-06T10:06:57;7.97;;;3.90;;
19651;SDS011;9974;52.146;14.668;2023-04-06T10:09:24;6.55;;;4.55;;
19651;SDS011;9974;52.146;14.668;2023-04-06T10:11:54;7.32;;;4.05;;
19651;SDS011;9974;52.146;14.668;2023-04-06T10:14:21;15.82;;;4.85;;
19651;SDS011;9974;52.146;14.668;2023-04-06T10:16:48;7.43;;;3.53;;
19651;SDS011;9974;52.146;14.668;2023-04-06T10:19:16;7.75;;;4.22;;
19651;SDS011;9974;52.146;14.668;2023-04-06T10:21:50;6.60;;;3.97;;
19651;SDS011;9974;52.146;14.668;2023-04-06T10:24:18;5.03;;;2.95;;
19651;SDS011;9974;52.146;14.668;2023-04-06T10:26:54;6.93;;;3.63;;
19651;SDS011;9974;52.146;14.668;2023-04-06T10:29:47;5.10;;;2.92;;
19651;SDS011;9974;52.146;14.668;2023-04-06T10:32:16;9.23;;;4.15;;
19651;SDS011;9974;52.146;14.668;2023-04-06T10:34:42;7.43;;;4.72;;
19651;SDS011;9974;52.146;14.668;2023-04-06T10:37:14;5.68;;;3.40;;
19651;SDS011;9974;52.146;14.668;2023-04-06T10:39:49;5.13;;;2.90;;
19651;SDS011;9974;52.146;14.668;2023-04-06T10:42:36;6.65;;;3.40;;
19651;SDS011;9974;52.146;14.668;2023-04-06T10:45:06;7.28;;;3.40;;
19651;SDS011;9974;52.146;14.668;2023-04-06T10:47:43;5.68;;;3.17;;
19651;SDS011;9974;52.146;14.668;2023-04-06T10:50:10;7.90;;;3.80;;
19651;SDS011;9974;52.146;14.668;2023-04-06T10:52:40;6.75;;;3.25;;
19651;SDS011;9974;52.146;14.668;2023-04-06T10:55:06;9.02;;;3.92;;
19651;SDS011;9974;52.146;14.668;2023-04-06T10:57:37;7.05;;;3.38;;
19651;SDS011;9974;52.146;14.668;2023-04-06T11:00:04;5.78;;;3.13;;
19651;SDS011;9974;52.146;14.668;2023-04-06T11:02:30;7.25;;;3.80;;
19651;SDS011;9974;52.146;14.668;2023-04-06T11:04:57;5.05;;;2.80;;
19651;SDS011;9974;52.146;14.668;2023-04-06T11:07:24;7.10;;;3.22;;
19651;SDS011;9974;52.146;14.668;2023-04-06T11:09:51;5.88;;;3.10;;
19651;SDS011;9974;52.146;14.668;2023-04-06T11:12:22;9.77;;;3.38;;
19651;SDS011;9974;52.146;14.668;2023-04-06T11:14:56;6.30;;;3.72;;
19651;SDS011;9974;52.146;14.668;2023-04-06T11:17:31;6.40;;;3.60;;
19651;SDS011;9974;52.146;14.668;2023-04-06T11:19:58;5.43;;;2.95;;
19651;SDS011;9974;52.146;14.668;2023-04-06T11:22:24;7.45;;;2.95;;
19651;SDS011;9974;52.146;14.668;2023-04-06T11:24:51;4.88;;;2.83;;
19651;SDS011;9974;52.146;14.668;2023-04-06T11:27:17;4.70;;;2.90;;
19651;SDS011;9974;52.146;14.668;2023-04-06T11:29:44;4.80;;;2.90;;
19651;SDS011;9974;52.146;14.668;2023-04-06T11:32:20;6.10;;;3.38;;
19651;SDS011;9974;52.146;14.668;2023-04-06T11:34:48;5.35;;;3.10;;
19651;SDS011;9974;52.146;14.668;2023-04-06T11:37:14;6.70;;;2.88;;
19651;SDS011;9974;52.146;14.668;2023-04-06T11:39:43;5.53;;;3.15;;
19651;SDS011;9974;52.146;14.668;2023-04-06T11:42:23;5.95;;;3.15;;
19651;SDS011;9974;52.146;14.668;2023-04-06T11:44:50;5.75;;;3.53;;
19651;SDS011;9974;52.146;14.668;2023-04-06T11:47:18;9.85;;;3.40;;
19651;SDS011;9974;52.146;14.668;2023-04-06T11:49:45;5.15;;;3.15;;
19651;SDS011;9974;52.146;14.668;2023-04-06T11:52:25;8.57;;;2.50;;
19651;SDS011;9974;52.146;14.668;2023-04-06T11:54:52;6.30;;;3.22;;
19651;SDS011;9974;52.146;14.668;2023-04-06T11:57:19;6.18;;;3.13;;
19651;SDS011;9974;52.146;14.668;2023-04-06T11:59:47;6.20;;;3.25;;
19651;SDS011;9974;52.146;14.668;2023-04-06T12:02:14;5.60;;;2.90;;
19651;SDS011;9974;52.146;14.668;2023-04-06T12:04:40;5.80;;;3.50;;
19651;SDS011;9974;52.146;14.668;2023-04-06T12:07:06;8.48;;;3.22;;
19651;SDS011;9974;52.146;14.668;2023-04-06T12:09:32;4.25;;;2.45;;
19651;SDS011;9974;52.146;14.668;2023-04-06T12:12:00;4.03;;;2.63;;
19651;SDS011;9974;52.146;14.668;2023-04-06T12:14:27;6.18;;;3.00;;
19651;SDS011;9974;52.146;14.668;2023-04-06T12:16:53;5.75;;;2.67;;
19651;SDS011;9974;52.146;14.668;2023-04-06T12:19:19;4.97;;;3.00;;
19651;SDS011;9974;52.146;14.668;2023-04-06T12:21:45;5.30;;;2.88;;
19651;SDS011;9974;52.146;14.668;2023-04-06T12:24:12;5.70;;;3.15;;
19651;SDS011;9974;52.146;14.668;2023-04-06T12:26:38;5.68;;;2.83;;
19651;SDS011;9974;52.146;14.668;2023-04-06T12:29:04;4.40;;;2.72;;
19651;SDS011;9974;52.146;14.668;2023-04-06T12:31:32;4.15;;;2.38;;
19651;SDS011;9974;52.146;14.668;2023-04-06T12:33:59;6.97;;;2.88;;
19651;SDS011;9974;52.146;14.668;2023-04-06T12:36:27;5.90;;;2.67;;
19651;SDS011;9974;52.146;14.668;2023-04-06T12:38:53;6.07;;;2.97;;
19651;SDS011;9974;52.146;14.668;2023-04-06T12:41:20;5.25;;;2.95;;
19651;SDS011;9974;52.146;14.668;2023-04-06T12:43:46;5.28;;;2.90;;
19651;SDS011;9974;52.146;14.668;2023-04-06T12:46:17;4.45;;;2.30;;
19651;SDS011;9974;52.146;14.668;2023-04-06T12:48:43;7.70;;;3.08;;
19651;SDS011;9974;52.146;14.668;2023-04-06T12:51:09;6.00;;;2.58;;
19651;SDS011;9974;52.146;14.668;2023-04-06T12:53:35;7.43;;;2.75;;
19651;SDS011;9974;52.146;14.668;2023-04-06T12:56:02;4.45;;;2.47;;
19651;SDS011;9974;52.146;14.668;2023-04-06T12:58:35;7.97;;;3.10;;
19651;SDS011;9974;52.146;14.668;2023-04-06T13:01:05;5.80;;;2.72;;
19651;SDS011;9974;52.146;14.668;2023-04-06T13:03:31;6.18;;;2.90;;
19651;SDS011;9974;52.146;14.668;2023-04-06T13:05:58;6.72;;;3.08;;
19651;SDS011;9974;52.146;14.668;2023-04-06T13:08:25;5.45;;;3.30;;
19651;SDS011;9974;52.146;14.668;2023-04-06T13:10:52;8.20;;;3.47;;
19651;SDS011;9974;52.146;14.668;2023-04-06T13:13:25;5.13;;;2.70;;
19651;SDS011;9974;52.146;14.668;2023-04-06T13:15:53;8.23;;;2.90;;
19651;SDS011;9974;52.146;14.668;2023-04-06T13:18:22;7.00;;;3.05;;
19651;SDS011;9974;52.146;14.668;2023-04-06T13:20:49;5.55;;;2.97;;
19651;SDS011;9974;52.146;14.668;2023-04-06T13:23:15;5.57;;;2.72;;
19651;SDS011;9974;52.146;14.668;2023-04-06T13:25:41;5.50;;;2.92;;
19651;SDS011;9974;52.146;14.668;2023-04-06T13:28:08;5.25;;;2.45;;
19651;SDS011;9974;52.146;14.668;2023-04-06T13:30:34;4.35;;;2.90;;
19651;SDS011;9974;52.146;14.668;2023-04-06T13:33:01;6.80;;;3.20;;
19651;SDS011;9974;52.146;14.668;2023-04-06T13:35:27;5.88;;;3.03;;
19651;SDS011;9974;52.146;14.668;2023-04-06T13:37:53;5.32;;;3.08;;
19651;SDS011;9974;52.146;14.668;2023-04-06T13:40:20;6.07;;;2.80;;
19651;SDS011;9974;52.146;14.668;2023-04-06T13:42:46;4.50;;;2.90;;
19651;SDS011;9974;52.146;14.668;2023-04-06T13:45:12;7.25;;;3.33;;
19651;SDS011;9974;52.146;14.668;2023-04-06T13:47:38;5.88;;;3.00;;
19651;SDS011;9974;52.146;14.668;2023-04-06T13:50:05;6.43;;;3.13;;
19651;SDS011;9974;52.146;14.668;2023-04-06T13:52:31;6.20;;;3.17;;
19651;SDS011;9974;52.146;14.668;2023-04-06T13:54:57;8.68;;;2.75;;
19651;SDS011;9974;52.146;14.668;2023-04-06T13:57:23;5.63;;;2.78;;
19651;SDS011;9974;52.146;14.668;2023-04-06T13:59:50;9.02;;;3.25;;
19651;SDS011;9974;52.146;14.668;2023-04-06T14:02:16;4.65;;;2.40;;
19651;SDS011;9974;52.146;14.668;2023-04-06T14:04:43;4.65;;;2.53;;
19651;SDS011;9974;52.146;14.668;2023-04-06T14:07:09;4.38;;;2.45;;
19651;SDS011;9974;52.146;14.668;2023-04-06T14:09:35;5.78;;;2.75;;
19651;SDS011;9974;52.146;14.668;2023-04-06T14:12:01;4.95;;;2.75;;
19651;SDS011;9974;52.146;14.668;2023-04-06T14:14:27;3.95;;;2.30;;
19651;SDS011;9974;52.146;14.668;2023-04-06T14:16:53;5.53;;;2.38;;
19651;SDS011;9974;52.146;14.668;2023-04-06T14:19:19;6.55;;;2.60;;
19651;SDS011;9974;52.146;14.668;2023-04-06T14:21:46;6.13;;;3.08;;
19651;SDS011;9974;52.146;14.668;2023-04-06T14:24:13;5.88;;;2.63;;
19651;SDS011;9974;52.146;14.668;2023-04-06T14:26:40;4.38;;;2.53;;
19651;SDS011;9974;52.146;14.668;2023-04-06T14:29:06;5.20;;;3.58;;
19651;SDS011;9974;52.146;14.668;2023-04-06T14:31:33;7.78;;;2.72;;
19651;SDS011;9974;52.146;14.668;2023-04-06T14:34:00;8.13;;;2.80;;